createdAt,value
2023-05-14T00:00:37.017Z,16.4
2023-05-14T00:03:09.323Z,16.4
2023-05-14T00:05:40.269Z,16.2
2023-05-14T00:08:11.429Z,16.2
2023-05-14T00:10:42.039Z,16.3
2023-05-14T00:13:12.614Z,16.1
2023-05-14T00:15:43.417Z,16.2
2023-05-14T00:18:14.228Z,16.2
2023-05-14T00:20:44.660Z,16.1
2023-05-14T00:23:15.430Z,16
2023-05-14T00:25:46.182Z,16
2023-05-14T00:28:16.679Z,15.8
2023-05-14T00:30:47.340Z,15.9
2023-05-14T00:33:17.637Z,15.9
2023-05-14T00:35:48.480Z,15.5
2023-05-14T00:38:19.308Z,15.3
2023-05-14T00:40:50.071Z,15.4
2023-05-14T00:45:52.708Z,15.4
2023-05-14T00:48:23.128Z,15.2
2023-05-14T00:50:53.908Z,15.2
2023-05-14T00:53:25.285Z,15.2
2023-05-14T00:55:56.112Z,15.2
2023-05-14T00:58:26.309Z,15
2023-05-14T01:00:57.138Z,15.1
2023-05-14T01:03:28.821Z,15
2023-05-14T01:06:00.156Z,15.1
2023-05-14T01:08:30.752Z,15.1
2023-05-14T01:11:01.238Z,15.1
2023-05-14T01:13:32.237Z,15
2023-05-14T01:16:03.088Z,14.8
2023-05-14T01:18:33.798Z,14.6
2023-05-14T01:21:04.978Z,14.7
2023-05-14T01:23:35.931Z,14.8
2023-05-14T01:26:07.047Z,14.7
2023-05-14T01:28:38.353Z,14.7
2023-05-14T01:31:09.190Z,14.6
2023-05-14T01:33:40.563Z,14.8
2023-05-14T01:36:11.795Z,14.8
2023-05-14T01:38:42.631Z,14.8
2023-05-14T01:41:13.405Z,14.5
2023-05-14T01:43:44.376Z,14.4
2023-05-14T01:46:15.157Z,14.4
2023-05-14T01:48:46.119Z,14.5
2023-05-14T01:51:16.949Z,14.5
2023-05-14T01:53:47.753Z,14.5
2023-05-14T01:56:18.433Z,14.3
2023-05-14T01:58:49.105Z,14.3
2023-05-14T02:01:19.684Z,14.2
2023-05-14T02:03:50.453Z,14.3
2023-05-14T02:06:21.585Z,14.3
2023-05-14T02:08:52.432Z,14.2
2023-05-14T02:11:23.133Z,14.3
2023-05-14T02:13:53.818Z,14.4
2023-05-14T02:16:24.462Z,14.5
2023-05-14T02:18:56.099Z,14.4
2023-05-14T02:21:26.615Z,14.3
2023-05-14T02:23:57.155Z,14.3
2023-05-14T02:26:27.675Z,14.3
2023-05-14T02:28:58.335Z,14.3
2023-05-14T02:31:29.148Z,14.2
2023-05-14T02:34:00.373Z,14.1
2023-05-14T02:36:32.084Z,14.3
2023-05-14T02:39:03.090Z,14.1
2023-05-14T02:41:34.149Z,14.3
2023-05-14T02:44:05.124Z,14.3
2023-05-14T02:46:35.664Z,14.3
2023-05-14T02:49:06.416Z,14.4
2023-05-14T02:51:36.992Z,14.3
2023-05-14T02:54:07.792Z,14.3
2023-05-14T02:56:38.422Z,14.3
2023-05-14T02:59:09.279Z,14.4
2023-05-14T03:01:40.163Z,14.3
2023-05-14T03:04:11.187Z,14.3
2023-05-14T03:06:42.568Z,14.2
2023-05-14T03:09:13.363Z,14.2
2023-05-14T03:11:44.198Z,14.2
2023-05-14T03:14:14.883Z,14.2
2023-05-14T03:16:46.106Z,14.3
2023-05-14T03:19:17.009Z,14.2
2023-05-14T03:21:47.479Z,14.1
2023-05-14T03:24:18.533Z,14.2
2023-05-14T03:26:49.105Z,14.1
2023-05-14T03:29:19.730Z,14.2
2023-05-14T03:31:50.598Z,14.2
2023-05-14T03:34:20.768Z,14.1
2023-05-14T03:36:51.633Z,14.2
2023-05-14T03:39:22.672Z,14.2
2023-05-14T03:41:52.816Z,14.3
2023-05-14T03:44:23.971Z,14.2
2023-05-14T03:46:54.904Z,14.1
2023-05-14T03:49:25.179Z,14.2
2023-05-14T03:51:56.606Z,14
2023-05-14T03:54:27.300Z,14.2
2023-05-14T03:56:58.193Z,14.3
2023-05-14T03:59:28.828Z,14.2
2023-05-14T04:01:59.821Z,14
2023-05-14T04:04:30.628Z,14
2023-05-14T04:07:01.624Z,14.1
2023-05-14T04:09:31.109Z,14.1
2023-05-14T04:12:02.072Z,14.2
2023-05-14T04:14:33.686Z,14.1
2023-05-14T04:17:04.840Z,14.1
2023-05-14T04:19:36.205Z,14.2
2023-05-14T04:22:07.898Z,14
2023-05-14T04:24:38.245Z,13.8
2023-05-14T04:27:08.811Z,13.7
2023-05-14T04:29:39.820Z,13.6
2023-05-14T04:32:10.894Z,13.6
2023-05-14T04:34:41.862Z,13.6
2023-05-14T04:37:13.600Z,13.5
2023-05-14T04:39:43.853Z,13.4
2023-05-14T04:42:14.721Z,13.4
2023-05-14T04:44:46.458Z,13.5
2023-05-14T04:47:17.373Z,13.5
2023-05-14T04:49:48.028Z,13.5
2023-05-14T04:52:18.610Z,13.4
2023-05-14T04:54:49.656Z,13.6
2023-05-14T04:57:20.180Z,13.5
2023-05-14T04:59:50.959Z,13.5
2023-05-14T05:02:24.451Z,13.5
2023-05-14T05:04:55.112Z,13.5
2023-05-14T05:07:25.263Z,13.3
2023-05-14T05:09:55.835Z,13.4
2023-05-14T05:12:26.818Z,13.4
2023-05-14T05:14:57.919Z,13.3
2023-05-14T05:17:28.699Z,13.4
2023-05-14T05:19:59.475Z,13.4
2023-05-14T05:22:30.953Z,13.4
2023-05-14T05:25:02.752Z,13.4
2023-05-14T05:27:33.191Z,13.5
2023-05-14T05:30:04.207Z,13.6
2023-05-14T05:32:34.940Z,13.4
2023-05-14T05:35:05.608Z,13.3
2023-05-14T05:37:36.825Z,13.4
2023-05-14T05:40:07.781Z,13.4
2023-05-14T05:42:38.504Z,13.3
2023-05-14T05:45:09.336Z,13.4
2023-05-14T05:47:40.373Z,13.3
2023-05-14T05:50:11.666Z,13.3
2023-05-14T05:52:42.832Z,13.4
2023-05-14T05:55:13.844Z,13.2
2023-05-14T05:57:45.072Z,13.4
2023-05-14T06:00:16.007Z,13.5
2023-05-14T06:02:46.934Z,13.4
2023-05-14T06:05:17.857Z,13.4
2023-05-14T06:07:48.131Z,13.3
2023-05-14T06:10:18.837Z,13.3
2023-05-14T06:12:50.004Z,13.3
2023-05-14T06:15:20.402Z,13.3
2023-05-14T06:17:51.187Z,13.4
2023-05-14T06:20:22.350Z,13.4
2023-05-14T06:22:53.235Z,13.5
2023-05-14T06:25:22.933Z,13.5
2023-05-14T06:27:54.162Z,13.6
2023-05-14T06:30:24.863Z,13.6
2023-05-14T06:32:55.319Z,13.6
2023-05-14T06:35:25.809Z,13.5
2023-05-14T06:37:56.512Z,13.4
2023-05-14T06:40:27.266Z,13.6
2023-05-14T06:42:57.907Z,13.6
2023-05-14T06:45:28.657Z,13.7
2023-05-14T06:47:59.978Z,13.7
2023-05-14T06:50:30.175Z,13.6
2023-05-14T06:53:01.209Z,13.4
2023-05-14T06:55:31.577Z,13.5
2023-05-14T06:58:02.172Z,13.4
2023-05-14T07:00:37.095Z,13.3
2023-05-14T07:03:08.026Z,13.4
2023-05-14T07:05:38.664Z,13.4
2023-05-14T07:08:09.618Z,13.3
2023-05-14T07:10:39.891Z,13.4
2023-05-14T07:13:10.944Z,13.5
2023-05-14T07:15:41.801Z,13.4
2023-05-14T07:18:12.704Z,13.4
2023-05-14T07:20:43.695Z,13.4
2023-05-14T07:23:15.002Z,13.4
2023-05-14T07:25:45.136Z,13.3
2023-05-14T07:28:16.025Z,13.3
2023-05-14T07:30:47.392Z,13.3
2023-05-14T07:33:18.290Z,13.4
2023-05-14T07:35:48.780Z,13.6
2023-05-14T07:38:19.569Z,13.5
2023-05-14T07:40:49.851Z,13.5
2023-05-14T07:43:20.203Z,13.6
2023-05-14T07:45:50.940Z,13.6
2023-05-14T07:48:21.893Z,13.6
2023-05-14T07:50:52.368Z,13.6
2023-05-14T07:53:22.617Z,13.7
2023-05-14T07:55:53.060Z,13.8
2023-05-14T07:58:23.540Z,13.7
2023-05-14T08:00:54.144Z,13.8
2023-05-14T08:03:25.018Z,13.9
2023-05-14T08:05:56.279Z,13.9
2023-05-14T08:08:26.567Z,13.9
2023-05-14T08:10:57.401Z,14.2
2023-05-14T08:13:27.682Z,14.3
2023-05-14T08:15:58.034Z,14.3
2023-05-14T08:18:28.845Z,14.3
2023-05-14T08:20:59.117Z,14.3
2023-05-14T08:23:29.788Z,14.5
2023-05-14T08:26:00.387Z,14.4
2023-05-14T08:28:30.572Z,14.3
2023-05-14T08:31:02.185Z,14.3
2023-05-14T08:33:32.701Z,14.5
2023-05-14T08:36:02.784Z,14.6
2023-05-14T08:38:33.299Z,14.6
2023-05-14T08:41:03.555Z,14.6
2023-05-14T08:43:34.316Z,14.6
2023-05-14T08:46:04.305Z,14.9
2023-05-14T08:48:35.050Z,14.9
2023-05-14T08:51:05.429Z,14.9
2023-05-14T08:53:35.832Z,14.8
2023-05-14T08:56:06.110Z,14.9
2023-05-14T08:58:36.157Z,15.1
2023-05-14T09:01:06.230Z,15.1
2023-05-14T09:03:39.271Z,15
2023-05-14T09:06:09.437Z,15.1
2023-05-14T09:08:39.808Z,15.2
2023-05-14T09:11:09.919Z,15.3
2023-05-14T09:13:40.211Z,15.4
2023-05-14T09:16:11.007Z,15.6
2023-05-14T09:18:41.364Z,15.7
2023-05-14T09:21:11.904Z,15.8
2023-05-14T09:23:42.658Z,16
2023-05-14T09:26:12.967Z,16.3
2023-05-14T09:28:43.104Z,16.5
2023-05-14T09:31:13.487Z,16.4
2023-05-14T09:33:43.902Z,16.5
2023-05-14T09:36:14.102Z,16.3
2023-05-14T09:38:44.490Z,16.5
2023-05-14T09:41:16.096Z,16.5
2023-05-14T09:43:46.914Z,16.5
2023-05-14T09:46:17.211Z,16.7
2023-05-14T09:48:47.932Z,16.6
2023-05-14T09:51:18.258Z,16.8
2023-05-14T09:53:48.455Z,17
2023-05-14T09:56:19.805Z,17
2023-05-14T09:58:50.122Z,17.1
2023-05-14T10:01:24.417Z,17.1
2023-05-14T10:03:56.025Z,17.2
2023-05-14T10:06:26.629Z,17.3
2023-05-14T10:08:57.582Z,17.2
2023-05-14T10:11:28.577Z,17.4
2023-05-14T10:13:59.231Z,17.3
2023-05-14T10:16:30.963Z,17.5
2023-05-14T10:19:01.512Z,17.5
2023-05-14T10:21:32.556Z,17.4
2023-05-14T10:24:03.514Z,17.6
2023-05-14T10:26:33.866Z,17.7
2023-05-14T10:29:04.603Z,17.9
2023-05-14T10:31:35.376Z,17.9
2023-05-14T10:34:05.761Z,17.9
2023-05-14T10:36:36.362Z,17.9
2023-05-14T10:39:06.774Z,17.8
2023-05-14T10:41:42.383Z,17.9
2023-05-14T10:44:13.086Z,18.2
2023-05-14T10:46:43.622Z,18.4
2023-05-14T10:49:14.842Z,18.6
2023-05-14T10:51:46.912Z,18.7
2023-05-14T10:54:18.354Z,18.6
2023-05-14T10:56:48.652Z,18.7
2023-05-14T10:59:19.425Z,18.5
2023-05-14T11:01:49.769Z,18.6
2023-05-14T11:04:19.923Z,18.8
2023-05-14T11:06:50.162Z,19
2023-05-14T11:09:21.760Z,19
2023-05-14T11:11:51.996Z,18.8
2023-05-14T11:14:22.298Z,19
2023-05-14T11:16:54.856Z,19.1
2023-05-14T11:19:24.883Z,19.1
2023-05-14T11:21:54.944Z,18.8
2023-05-14T11:24:25.310Z,18.7
2023-05-14T11:26:55.780Z,18.9
2023-05-14T11:29:26.187Z,18.8
2023-05-14T11:31:57.204Z,18.9
2023-05-14T11:34:27.606Z,19
2023-05-14T11:36:58.580Z,19
2023-05-14T11:39:29.956Z,19
2023-05-14T11:42:00.614Z,19
2023-05-14T11:44:31.161Z,19.1
2023-05-14T11:47:01.468Z,19.3
2023-05-14T11:49:31.995Z,19.4
2023-05-14T11:52:02.463Z,19.6
2023-05-14T11:54:32.765Z,19.7
2023-05-14T11:57:03.468Z,19.9
2023-05-14T11:59:33.921Z,20
2023-05-14T12:02:04.687Z,20
2023-05-14T12:04:35.219Z,19.9
2023-05-14T12:07:05.660Z,20
2023-05-14T12:09:35.660Z,19.7
2023-05-14T12:12:06.344Z,19.7
2023-05-14T12:14:36.847Z,19.9
2023-05-14T12:17:07.611Z,20
2023-05-14T12:19:38.299Z,20.1
2023-05-14T12:22:08.891Z,20.3
2023-05-14T12:24:39.705Z,20.6
2023-05-14T12:27:10.498Z,20.5
2023-05-14T12:29:41.275Z,20.4
2023-05-14T12:32:12.178Z,20.5
2023-05-14T12:34:43.039Z,20.3
2023-05-14T12:37:13.727Z,20.2
2023-05-14T12:39:44.360Z,20.4
2023-05-14T12:42:15.522Z,20.5
2023-05-14T12:44:45.774Z,20.5
2023-05-14T12:47:16.497Z,20.5
2023-05-14T12:49:46.891Z,20.5
2023-05-14T12:52:25.896Z,20.7
2023-05-14T12:54:48.354Z,20.9
2023-05-14T12:57:18.941Z,21.4
2023-05-14T12:59:49.457Z,21.5
2023-05-14T13:02:20.490Z,21.3
2023-05-14T13:04:50.802Z,21.2
2023-05-14T13:07:21.250Z,21.4
2023-05-14T13:09:51.582Z,21.6
2023-05-14T13:12:22.453Z,21.8
2023-05-14T13:14:53.246Z,21.8
2023-05-14T13:17:23.842Z,21.8
2023-05-14T13:19:54.506Z,22.2
2023-05-14T13:22:24.894Z,21.7
2023-05-14T13:24:55.599Z,21.6
2023-05-14T13:27:26.203Z,21.6
2023-05-14T13:29:56.461Z,21.3
2023-05-14T13:32:26.981Z,21.4
2023-05-14T13:34:57.602Z,21.6
2023-05-14T13:37:28.072Z,21.7
2023-05-14T13:39:58.312Z,21.4
2023-05-14T13:42:29.459Z,21.2
2023-05-14T13:44:59.813Z,21.1
2023-05-14T13:47:30.348Z,21
2023-05-14T13:50:00.677Z,21
2023-05-14T13:52:31.312Z,21.1
2023-05-14T13:55:02.120Z,21.2
2023-05-14T13:57:33.475Z,21.1
2023-05-14T14:00:03.962Z,20.9
2023-05-14T14:02:34.466Z,20.6
2023-05-14T14:05:03.235Z,20.5
2023-05-14T14:07:33.664Z,20.5
2023-05-14T14:10:04.040Z,20.5
2023-05-14T14:12:34.827Z,20.6
2023-05-14T14:15:05.053Z,20.6
2023-05-14T14:17:35.438Z,20.5
2023-05-14T14:20:05.929Z,20.4
2023-05-14T14:22:36.457Z,20.5
2023-05-14T14:25:06.837Z,20.6
2023-05-14T14:27:37.184Z,20.6
2023-05-14T14:30:07.520Z,20.7
2023-05-14T14:32:37.861Z,20.6
2023-05-14T14:35:08.053Z,20.5
2023-05-14T14:37:38.558Z,20.6
2023-05-14T14:40:08.889Z,20.5
2023-05-14T14:42:40.217Z,20.5
2023-05-14T14:45:10.510Z,20.6
2023-05-14T14:47:41.432Z,20.4
2023-05-14T14:50:13.935Z,20.4
2023-05-14T14:52:45.561Z,20.4
2023-05-14T14:55:15.012Z,20.3
2023-05-14T14:57:46.179Z,20.4
2023-05-14T15:00:17.086Z,20.4
2023-05-14T15:02:50.852Z,20.4
2023-05-14T15:05:20.759Z,20.5
2023-05-14T15:07:50.518Z,20.5
2023-05-14T15:10:21.047Z,20.3
2023-05-14T15:12:52.024Z,20.4
2023-05-14T15:15:22.769Z,20.4
2023-05-14T15:17:53.190Z,20.2
2023-05-14T15:20:23.337Z,20.2
2023-05-14T15:22:53.882Z,20.1
2023-05-14T15:25:25.278Z,20
2023-05-14T15:27:55.586Z,20
2023-05-14T15:30:26.103Z,20.1
2023-05-14T15:32:56.311Z,20
2023-05-14T15:35:26.714Z,20
2023-05-14T15:37:56.895Z,19.8
2023-05-14T15:40:27.359Z,19.8
2023-05-14T15:42:57.444Z,19.6
2023-05-14T15:45:27.980Z,19.7
2023-05-14T15:47:57.209Z,19.8
2023-05-14T15:50:26.598Z,19.7
2023-05-14T15:52:56.746Z,19.8
2023-05-14T15:55:26.914Z,19.7
2023-05-14T15:57:57.963Z,19.5
2023-05-14T16:00:28.169Z,19.5
2023-05-14T16:02:58.753Z,19.3
2023-05-14T16:05:28.962Z,19.4
2023-05-14T16:07:59.320Z,19.3
2023-05-14T16:10:30.076Z,19.2
2023-05-14T16:13:00.884Z,19.4
2023-05-14T16:15:29.702Z,19.3
2023-05-14T16:18:00.896Z,19.3
2023-05-14T16:20:31.148Z,19.3
2023-05-14T16:23:01.436Z,19.1
2023-05-14T16:25:32.050Z,19.3
2023-05-14T16:28:03.384Z,19.3
2023-05-14T16:30:34.616Z,19.4
2023-05-14T16:33:05.679Z,19.1
2023-05-14T16:35:36.175Z,19.1
2023-05-14T16:38:06.812Z,19
2023-05-14T16:40:37.684Z,19.1
2023-05-14T16:43:08.149Z,19.1
2023-05-14T16:45:38.531Z,19.1
2023-05-14T16:48:09.658Z,19.1
2023-05-14T16:50:40.075Z,18.9
2023-05-14T16:53:10.594Z,19
2023-05-14T16:55:41.472Z,19.1
2023-05-14T16:58:12.208Z,18.9
2023-05-14T17:00:42.719Z,18.9
2023-05-14T17:03:12.872Z,19
2023-05-14T17:05:44.096Z,19
2023-05-14T17:08:14.330Z,18.8
2023-05-14T17:10:44.740Z,18.7
2023-05-14T17:13:15.019Z,18.8
2023-05-14T17:15:46.812Z,18.8
2023-05-14T17:18:17.309Z,19
2023-05-14T17:20:46.197Z,18.9
2023-05-14T17:23:16.639Z,18.6
2023-05-14T17:25:47.005Z,18.8
2023-05-14T17:28:17.148Z,18.8
2023-05-14T17:30:47.337Z,18.8
2023-05-14T17:33:22.969Z,18.7
2023-05-14T17:35:53.063Z,18.6
2023-05-14T17:40:55.065Z,18.4
2023-05-14T17:43:25.050Z,18.3
2023-05-14T17:46:01.366Z,18.4
2023-05-14T17:48:41.345Z,18.3
2023-05-14T17:51:11.493Z,18.4
2023-05-14T17:53:41.590Z,18.2
2023-05-14T17:56:16.446Z,18.1
2023-05-14T18:01:26.440Z,18.1
2023-05-14T18:04:00.991Z,18.1
2023-05-14T18:06:31.895Z,18.2
2023-05-14T18:09:02.882Z,18.2
2023-05-14T18:14:08.283Z,18.3
2023-05-14T18:16:36.624Z,18
2023-05-14T18:19:06.909Z,18.1
2023-05-14T18:21:37.345Z,18.1
2023-05-14T18:24:07.663Z,18.2
2023-05-14T18:26:38.007Z,18.3
2023-05-14T18:29:07.910Z,18.2
2023-05-14T18:31:38.068Z,18.1
2023-05-14T18:34:08.404Z,18
2023-05-14T18:36:38.523Z,18
2023-05-14T18:39:09.123Z,18
2023-05-14T18:44:15.579Z,18
2023-05-14T18:46:46.323Z,18
2023-05-14T18:49:16.622Z,18
2023-05-14T18:51:47.214Z,18.1
2023-05-14T18:54:24.108Z,18.1
2023-05-14T18:56:54.564Z,18
2023-05-14T18:59:25.072Z,17.8
2023-05-14T19:02:00.908Z,17.8
2023-05-14T19:04:29.751Z,17.8
2023-05-14T19:07:00.023Z,17.7
2023-05-14T19:09:30.425Z,17.7
2023-05-14T19:12:07.382Z,17.6
2023-05-14T19:14:37.882Z,17.8
2023-05-14T19:17:08.400Z,17.6
2023-05-14T19:19:39.498Z,17.6
2023-05-14T19:22:09.793Z,17.7
2023-05-14T19:24:40.109Z,17.7
2023-05-14T19:27:10.936Z,17.7
2023-05-14T19:29:41.287Z,17.7
2023-05-14T19:32:11.881Z,17.7
2023-05-14T19:34:42.434Z,17.7
2023-05-14T19:37:12.949Z,17.8
2023-05-14T19:39:43.293Z,17.8
2023-05-14T19:42:19.251Z,17.6
2023-05-14T19:44:49.990Z,17.5
2023-05-14T19:47:25.513Z,17.7
2023-05-14T19:49:57.268Z,17.7
2023-05-14T19:52:27.520Z,17.6
2023-05-14T19:54:57.939Z,17.7
2023-05-14T19:57:28.241Z,17.7
2023-05-14T19:59:58.784Z,17.8
2023-05-14T20:02:35.252Z,17.7
2023-05-14T20:05:05.804Z,17.9
2023-05-14T20:07:37.760Z,17.6
2023-05-14T20:10:06.784Z,17.7
2023-05-14T20:12:37.376Z,17.7
2023-05-14T20:15:07.755Z,17.7
2023-05-14T20:17:39.714Z,17.7
2023-05-14T20:20:10.127Z,17.8
2023-05-14T20:22:40.355Z,17.7
2023-05-14T20:25:11.345Z,17.6
2023-05-14T20:27:42.228Z,17.6
2023-05-14T20:30:13.611Z,17.6
2023-05-14T20:32:43.712Z,17.5
2023-05-14T20:35:13.957Z,17.5
2023-05-14T20:37:44.542Z,17.5
2023-05-14T20:40:15.019Z,17.5
2023-05-14T20:42:45.345Z,17.5
2023-05-14T20:45:15.552Z,17.5
2023-05-14T20:47:46.155Z,17.5
2023-05-14T20:50:16.467Z,17.5
2023-05-14T20:52:47.166Z,17.4
2023-05-14T20:55:17.522Z,17.4
2023-05-14T20:57:48.498Z,17.5
2023-05-14T21:00:19.660Z,17.5
2023-05-14T21:02:50.232Z,17.6
2023-05-14T21:05:20.177Z,17.5
2023-05-14T21:07:51.140Z,17.6
2023-05-14T21:10:21.532Z,17.6
2023-05-14T21:12:52.037Z,17.7
2023-05-14T21:15:23.274Z,17.7
2023-05-14T21:17:53.966Z,17.6
2023-05-14T21:20:24.146Z,17.7
2023-05-14T21:22:55.242Z,17.6
2023-05-14T21:25:26.268Z,17.7
2023-05-14T21:27:56.835Z,17.7
2023-05-14T21:30:28.553Z,17.7
2023-05-14T21:33:07.123Z,17.7
2023-05-14T21:35:39.507Z,17.7
2023-05-14T21:38:10.606Z,17.6
2023-05-14T21:40:41.369Z,17.6
2023-05-14T21:43:15.425Z,17.6
2023-05-14T21:45:48.593Z,17.6
2023-05-14T21:48:20.950Z,17.7
2023-05-14T21:50:51.802Z,17.5
2023-05-14T21:53:22.460Z,17.6
2023-05-14T21:55:52.982Z,17.6
2023-05-14T21:58:22.332Z,17.7
2023-05-14T22:00:52.888Z,17.6
2023-05-14T22:03:23.578Z,17.6
2023-05-14T22:05:53.906Z,17.5
2023-05-14T22:08:28.605Z,17.5
2023-05-14T22:11:06.720Z,17.6
2023-05-14T22:13:36.706Z,17.6
2023-05-14T22:16:13.145Z,17.5
2023-05-14T22:18:41.789Z,17.5
2023-05-14T22:21:12.538Z,17.5
2023-05-14T22:23:43.548Z,17.5
2023-05-14T22:26:13.907Z,17.4
2023-05-14T22:28:45.824Z,17.3
2023-05-14T22:31:16.229Z,17.4
2023-05-14T22:33:46.675Z,17.3
2023-05-14T22:36:17.547Z,17.4
2023-05-14T22:38:48.086Z,17.3
2023-05-14T22:41:19.318Z,17.2
2023-05-14T22:43:50.146Z,17.3
2023-05-14T22:46:21.020Z,17.2
2023-05-14T22:48:51.712Z,17.1
2023-05-14T22:51:22.624Z,17.1
2023-05-14T22:53:53.622Z,17.1
2023-05-14T22:56:24.420Z,17.2
2023-05-14T22:58:55.722Z,17.2
2023-05-14T23:01:27.255Z,17.1
2023-05-14T23:03:57.830Z,17.3
2023-05-14T23:06:28.410Z,17.1
2023-05-14T23:08:59.654Z,16.9
2023-05-14T23:11:30.389Z,17
2023-05-14T23:14:01.114Z,17
2023-05-14T23:16:32.088Z,17.1
2023-05-14T23:19:04.000Z,17
2023-05-14T23:21:34.964Z,17
2023-05-14T23:24:05.357Z,17
2023-05-14T23:26:36.399Z,16.9
2023-05-14T23:29:07.653Z,17
2023-05-14T23:31:38.665Z,17
2023-05-14T23:34:09.833Z,17.1
2023-05-14T23:36:40.731Z,17.1
2023-05-14T23:39:12.156Z,17.1
2023-05-14T23:41:42.706Z,17.1
2023-05-14T23:44:14.032Z,17.2
2023-05-14T23:46:46.122Z,17.3
2023-05-14T23:49:16.671Z,17.2
2023-05-14T23:51:48.095Z,17.3
2023-05-14T23:54:18.959Z,17.3
2023-05-14T23:56:49.880Z,17.3
2023-05-14T23:59:21.207Z,17.3
